sensor_id;sensor_type;location;lat;lon;timestamp;P1;durP1;ratioP1;P2;durP2;ratioP2
20727;SDS011;10525;50.154;8.198;2023-03-23T00:02:11;1.10;;;1.10;;
20727;SDS011;10525;50.154;8.198;2023-03-23T00:04:39;1.35;;;1.20;;
20727;SDS011;10525;50.154;8.198;2023-03-23T00:07:07;6.57;;;1.30;;
20727;SDS011;10525;50.154;8.198;2023-03-23T00:09:34;1.55;;;1.50;;
20727;SDS011;10525;50.154;8.198;2023-03-23T00:12:06;1.33;;;1.23;;
20727;SDS011;10525;50.154;8.198;2023-03-23T00:14:33;2.83;;;1.10;;
20727;SDS011;10525;50.154;8.198;2023-03-23T00:17:06;2.10;;;1.13;;
20727;SDS011;10525;50.154;8.198;2023-03-23T00:19:34;1.60;;;0.95;;
20727;SDS011;10525;50.154;8.198;2023-03-23T00:22:11;1.10;;;1.10;;
20727;SDS011;10525;50.154;8.198;2023-03-23T00:24:38;1.45;;;1.38;;
20727;SDS011;10525;50.154;8.198;2023-03-23T00:27:05;11.80;;;1.67;;
20727;SDS011;10525;50.154;8.198;2023-03-23T00:29:33;0.88;;;0.88;;
20727;SDS011;10525;50.154;8.198;2023-03-23T00:32:00;1.23;;;1.23;;
20727;SDS011;10525;50.154;8.198;2023-03-23T00:34:27;3.15;;;1.17;;
20727;SDS011;10525;50.154;8.198;2023-03-23T00:36:57;1.08;;;1.08;;
20727;SDS011;10525;50.154;8.198;2023-03-23T00:39:26;1.10;;;1.10;;
20727;SDS011;10525;50.154;8.198;2023-03-23T00:41:54;1.90;;;1.20;;
20727;SDS011;10525;50.154;8.198;2023-03-23T00:44:25;1.85;;;1.10;;
20727;SDS011;10525;50.154;8.198;2023-03-23T00:46:53;1.90;;;1.10;;
20727;SDS011;10525;50.154;8.198;2023-03-23T00:49:21;2.88;;;1.50;;
20727;SDS011;10525;50.154;8.198;2023-03-23T00:51:50;2.97;;;1.10;;
20727;SDS011;10525;50.154;8.198;2023-03-23T00:54:17;0.90;;;0.90;;
20727;SDS011;10525;50.154;8.198;2023-03-23T00:56:45;0.93;;;0.93;;
20727;SDS011;10525;50.154;8.198;2023-03-23T00:59:12;3.05;;;1.00;;
20727;SDS011;10525;50.154;8.198;2023-03-23T01:01:39;2.08;;;1.30;;
20727;SDS011;10525;50.154;8.198;2023-03-23T01:04:06;1.20;;;1.20;;
20727;SDS011;10525;50.154;8.198;2023-03-23T01:06:34;3.80;;;1.10;;
20727;SDS011;10525;50.154;8.198;2023-03-23T01:09:03;2.72;;;0.93;;
20727;SDS011;10525;50.154;8.198;2023-03-23T01:11:31;1.05;;;1.05;;
20727;SDS011;10525;50.154;8.198;2023-03-23T01:14:00;1.38;;;1.08;;
20727;SDS011;10525;50.154;8.198;2023-03-23T01:16:27;1.58;;;1.13;;
20727;SDS011;10525;50.154;8.198;2023-03-23T01:18:54;1.30;;;1.00;;
20727;SDS011;10525;50.154;8.198;2023-03-23T01:21:21;1.67;;;1.10;;
20727;SDS011;10525;50.154;8.198;2023-03-23T01:23:49;1.10;;;1.10;;
20727;SDS011;10525;50.154;8.198;2023-03-23T01:26:17;1.58;;;1.10;;
20727;SDS011;10525;50.154;8.198;2023-03-23T01:28:45;2.28;;;1.10;;
20727;SDS011;10525;50.154;8.198;2023-03-23T01:31:14;0.80;;;0.80;;
20727;SDS011;10525;50.154;8.198;2023-03-23T01:33:43;1.10;;;1.10;;
20727;SDS011;10525;50.154;8.198;2023-03-23T01:36:11;0.90;;;0.90;;
20727;SDS011;10525;50.154;8.198;2023-03-23T01:38:40;1.27;;;1.27;;
20727;SDS011;10525;50.154;8.198;2023-03-23T01:41:08;1.20;;;1.10;;
20727;SDS011;10525;50.154;8.198;2023-03-23T01:43:35;1.00;;;1.00;;
20727;SDS011;10525;50.154;8.198;2023-03-23T01:46:02;1.08;;;1.05;;
20727;SDS011;10525;50.154;8.198;2023-03-23T01:48:31;1.08;;;1.08;;
20727;SDS011;10525;50.154;8.198;2023-03-23T01:51:01;1.15;;;0.93;;
20727;SDS011;10525;50.154;8.198;2023-03-23T01:53:31;0.95;;;0.90;;
20727;SDS011;10525;50.154;8.198;2023-03-23T01:56:02;1.20;;;1.10;;
20727;SDS011;10525;50.154;8.198;2023-03-23T01:58:32;1.00;;;1.00;;
20727;SDS011;10525;50.154;8.198;2023-03-23T02:01:01;1.40;;;1.23;;
20727;SDS011;10525;50.154;8.198;2023-03-23T02:03:32;1.10;;;1.10;;
20727;SDS011;10525;50.154;8.198;2023-03-23T02:06:02;1.02;;;1.02;;
20727;SDS011;10525;50.154;8.198;2023-03-23T02:08:29;1.02;;;0.95;;
20727;SDS011;10525;50.154;8.198;2023-03-23T02:10:58;1.02;;;1.00;;
20727;SDS011;10525;50.154;8.198;2023-03-23T02:13:25;0.90;;;0.90;;
20727;SDS011;10525;50.154;8.198;2023-03-23T02:15:55;1.55;;;0.93;;
20727;SDS011;10525;50.154;8.198;2023-03-23T02:18:31;2.05;;;1.15;;
20727;SDS011;10525;50.154;8.198;2023-03-23T02:21:25;2.40;;;1.10;;
20727;SDS011;10525;50.154;8.198;2023-03-23T02:27:15;0.98;;;0.98;;
20727;SDS011;10525;50.154;8.198;2023-03-23T02:29:48;3.17;;;1.30;;
20727;SDS011;10525;50.154;8.198;2023-03-23T02:35:32;1.65;;;1.05;;
20727;SDS011;10525;50.154;8.198;2023-03-23T02:38:04;1.10;;;1.10;;
20727;SDS011;10525;50.154;8.198;2023-03-23T02:40:36;1.23;;;1.20;;
20727;SDS011;10525;50.154;8.198;2023-03-23T02:43:06;1.00;;;1.00;;
20727;SDS011;10525;50.154;8.198;2023-03-23T02:45:38;1.08;;;1.08;;
20727;SDS011;10525;50.154;8.198;2023-03-23T02:48:07;1.15;;;1.00;;
20727;SDS011;10525;50.154;8.198;2023-03-23T02:50:36;1.08;;;1.08;;
20727;SDS011;10525;50.154;8.198;2023-03-23T02:53:07;1.20;;;1.20;;
20727;SDS011;10525;50.154;8.198;2023-03-23T02:55:36;1.55;;;1.45;;
20727;SDS011;10525;50.154;8.198;2023-03-23T02:58:05;1.17;;;1.08;;
20727;SDS011;10525;50.154;8.198;2023-03-23T03:00:32;1.35;;;1.35;;
20727;SDS011;10525;50.154;8.198;2023-03-23T03:02:59;1.25;;;1.25;;
20727;SDS011;10525;50.154;8.198;2023-03-23T03:05:30;1.20;;;1.08;;
20727;SDS011;10525;50.154;8.198;2023-03-23T03:08:08;1.20;;;1.20;;
20727;SDS011;10525;50.154;8.198;2023-03-23T03:10:44;2.72;;;1.50;;
20727;SDS011;10525;50.154;8.198;2023-03-23T03:13:19;0.90;;;0.90;;
20727;SDS011;10525;50.154;8.198;2023-03-23T03:15:56;1.23;;;1.23;;
20727;SDS011;10525;50.154;8.198;2023-03-23T03:18:27;1.40;;;1.13;;
20727;SDS011;10525;50.154;8.198;2023-03-23T03:21:02;1.67;;;1.27;;
20727;SDS011;10525;50.154;8.198;2023-03-23T03:23:31;1.95;;;1.40;;
20727;SDS011;10525;50.154;8.198;2023-03-23T03:26:00;3.05;;;1.20;;
20727;SDS011;10525;50.154;8.198;2023-03-23T03:28:29;1.48;;;1.48;;
20727;SDS011;10525;50.154;8.198;2023-03-23T03:30:58;1.98;;;1.48;;
20727;SDS011;10525;50.154;8.198;2023-03-23T03:33:29;1.35;;;1.25;;
20727;SDS011;10525;50.154;8.198;2023-03-23T03:35:58;1.30;;;1.30;;
20727;SDS011;10525;50.154;8.198;2023-03-23T03:38:29;1.00;;;1.00;;
20727;SDS011;10525;50.154;8.198;2023-03-23T03:41:06;1.83;;;1.25;;
20727;SDS011;10525;50.154;8.198;2023-03-23T03:43:32;0.98;;;0.98;;
20727;SDS011;10525;50.154;8.198;2023-03-23T03:46:00;1.27;;;1.20;;
20727;SDS011;10525;50.154;8.198;2023-03-23T03:48:26;1.10;;;1.10;;
20727;SDS011;10525;50.154;8.198;2023-03-23T03:50:53;1.20;;;1.20;;
20727;SDS011;10525;50.154;8.198;2023-03-23T03:53:23;1.88;;;1.15;;
20727;SDS011;10525;50.154;8.198;2023-03-23T03:55:50;1.17;;;1.17;;
20727;SDS011;10525;50.154;8.198;2023-03-23T03:58:20;1.33;;;1.23;;
20727;SDS011;10525;50.154;8.198;2023-03-23T04:00:47;1.65;;;1.30;;
20727;SDS011;10525;50.154;8.198;2023-03-23T04:03:14;2.05;;;1.38;;
20727;SDS011;10525;50.154;8.198;2023-03-23T04:05:41;1.20;;;1.20;;
20727;SDS011;10525;50.154;8.198;2023-03-23T04:08:09;1.23;;;1.23;;
20727;SDS011;10525;50.154;8.198;2023-03-23T04:10:37;3.17;;;1.38;;
20727;SDS011;10525;50.154;8.198;2023-03-23T04:13:04;1.23;;;1.23;;
20727;SDS011;10525;50.154;8.198;2023-03-23T04:15:31;3.53;;;1.98;;
20727;SDS011;10525;50.154;8.198;2023-03-23T04:17:57;1.30;;;1.30;;
20727;SDS011;10525;50.154;8.198;2023-03-23T04:20:24;1.23;;;1.23;;
20727;SDS011;10525;50.154;8.198;2023-03-23T04:22:51;1.38;;;1.27;;
20727;SDS011;10525;50.154;8.198;2023-03-23T04:25:20;1.38;;;1.27;;
20727;SDS011;10525;50.154;8.198;2023-03-23T04:27:48;2.00;;;1.17;;
20727;SDS011;10525;50.154;8.198;2023-03-23T04:30:17;1.27;;;1.27;;
20727;SDS011;10525;50.154;8.198;2023-03-23T04:32:46;1.42;;;1.10;;
20727;SDS011;10525;50.154;8.198;2023-03-23T04:35:15;1.45;;;1.45;;
20727;SDS011;10525;50.154;8.198;2023-03-23T04:37:42;1.40;;;1.40;;
20727;SDS011;10525;50.154;8.198;2023-03-23T04:40:10;1.48;;;1.38;;
20727;SDS011;10525;50.154;8.198;2023-03-23T04:42:39;1.60;;;1.52;;
20727;SDS011;10525;50.154;8.198;2023-03-23T04:45:12;1.40;;;1.40;;
20727;SDS011;10525;50.154;8.198;2023-03-23T04:47:39;1.75;;;1.25;;
20727;SDS011;10525;50.154;8.198;2023-03-23T04:50:20;1.42;;;1.40;;
20727;SDS011;10525;50.154;8.198;2023-03-23T04:52:49;3.15;;;1.40;;
20727;SDS011;10525;50.154;8.198;2023-03-23T04:55:16;1.35;;;1.27;;
20727;SDS011;10525;50.154;8.198;2023-03-23T04:57:44;1.88;;;1.58;;
20727;SDS011;10525;50.154;8.198;2023-03-23T05:00:12;1.42;;;1.40;;
20727;SDS011;10525;50.154;8.198;2023-03-23T05:02:41;1.40;;;1.40;;
20727;SDS011;10525;50.154;8.198;2023-03-23T05:05:09;1.25;;;1.25;;
20727;SDS011;10525;50.154;8.198;2023-03-23T05:07:38;1.30;;;1.23;;
20727;SDS011;10525;50.154;8.198;2023-03-23T05:10:06;1.48;;;1.38;;
20727;SDS011;10525;50.154;8.198;2023-03-23T05:12:34;1.40;;;1.40;;
20727;SDS011;10525;50.154;8.198;2023-03-23T05:15:01;1.40;;;1.40;;
20727;SDS011;10525;50.154;8.198;2023-03-23T05:17:30;1.38;;;1.38;;
20727;SDS011;10525;50.154;8.198;2023-03-23T05:19:57;1.65;;;1.58;;
20727;SDS011;10525;50.154;8.198;2023-03-23T05:22:25;2.30;;;1.63;;
20727;SDS011;10525;50.154;8.198;2023-03-23T05:24:57;1.55;;;1.45;;
20727;SDS011;10525;50.154;8.198;2023-03-23T05:27:23;1.70;;;1.50;;
20727;SDS011;10525;50.154;8.198;2023-03-23T05:29:53;1.52;;;1.42;;
20727;SDS011;10525;50.154;8.198;2023-03-23T05:32:19;1.83;;;1.73;;
20727;SDS011;10525;50.154;8.198;2023-03-23T05:34:54;1.20;;;1.20;;
20727;SDS011;10525;50.154;8.198;2023-03-23T05:37:21;1.50;;;1.40;;
20727;SDS011;10525;50.154;8.198;2023-03-23T05:39:48;1.67;;;1.50;;
20727;SDS011;10525;50.154;8.198;2023-03-23T05:42:18;1.67;;;1.58;;
20727;SDS011;10525;50.154;8.198;2023-03-23T05:44:45;1.60;;;1.55;;
20727;SDS011;10525;50.154;8.198;2023-03-23T05:47:11;3.58;;;1.73;;
20727;SDS011;10525;50.154;8.198;2023-03-23T05:49:38;1.42;;;1.42;;
20727;SDS011;10525;50.154;8.198;2023-03-23T05:52:06;1.80;;;1.80;;
20727;SDS011;10525;50.154;8.198;2023-03-23T05:54:34;1.50;;;1.50;;
20727;SDS011;10525;50.154;8.198;2023-03-23T05:57:00;1.52;;;1.50;;
20727;SDS011;10525;50.154;8.198;2023-03-23T05:59:27;1.33;;;1.33;;
20727;SDS011;10525;50.154;8.198;2023-03-23T06:01:54;1.40;;;1.30;;
20727;SDS011;10525;50.154;8.198;2023-03-23T06:04:22;1.58;;;1.48;;
20727;SDS011;10525;50.154;8.198;2023-03-23T06:06:49;1.30;;;1.20;;
20727;SDS011;10525;50.154;8.198;2023-03-23T06:09:18;1.42;;;1.42;;
20727;SDS011;10525;50.154;8.198;2023-03-23T06:11:45;2.58;;;1.63;;
20727;SDS011;10525;50.154;8.198;2023-03-23T06:14:12;1.33;;;1.33;;
20727;SDS011;10525;50.154;8.198;2023-03-23T06:16:39;1.60;;;1.60;;
20727;SDS011;10525;50.154;8.198;2023-03-23T06:19:06;3.58;;;1.60;;
20727;SDS011;10525;50.154;8.198;2023-03-23T06:21:33;1.30;;;1.30;;
20727;SDS011;10525;50.154;8.198;2023-03-23T06:24:00;1.90;;;1.83;;
20727;SDS011;10525;50.154;8.198;2023-03-23T06:26:28;1.55;;;1.50;;
20727;SDS011;10525;50.154;8.198;2023-03-23T06:28:58;2.47;;;1.70;;
20727;SDS011;10525;50.154;8.198;2023-03-23T06:31:24;1.45;;;1.45;;
20727;SDS011;10525;50.154;8.198;2023-03-23T06:33:53;1.88;;;1.77;;
20727;SDS011;10525;50.154;8.198;2023-03-23T06:36:20;1.65;;;1.65;;
20727;SDS011;10525;50.154;8.198;2023-03-23T06:38:47;1.90;;;1.73;;
20727;SDS011;10525;50.154;8.198;2023-03-23T06:41:14;2.13;;;1.98;;
20727;SDS011;10525;50.154;8.198;2023-03-23T06:43:42;1.73;;;1.63;;
20727;SDS011;10525;50.154;8.198;2023-03-23T06:46:11;1.98;;;1.88;;
20727;SDS011;10525;50.154;8.198;2023-03-23T06:48:38;3.88;;;1.80;;
20727;SDS011;10525;50.154;8.198;2023-03-23T06:51:05;1.95;;;1.90;;
20727;SDS011;10525;50.154;8.198;2023-03-23T06:53:32;2.63;;;2.08;;
20727;SDS011;10525;50.154;8.198;2023-03-23T06:55:59;2.85;;;2.20;;
20727;SDS011;10525;50.154;8.198;2023-03-23T06:58:26;2.40;;;2.00;;
20727;SDS011;10525;50.154;8.198;2023-03-23T07:00:54;1.90;;;1.80;;
20727;SDS011;10525;50.154;8.198;2023-03-23T07:03:23;2.50;;;1.92;;
20727;SDS011;10525;50.154;8.198;2023-03-23T07:05:50;2.05;;;1.73;;
20727;SDS011;10525;50.154;8.198;2023-03-23T07:08:17;2.90;;;1.77;;
20727;SDS011;10525;50.154;8.198;2023-03-23T07:10:43;2.53;;;1.70;;
20727;SDS011;10525;50.154;8.198;2023-03-23T07:13:10;2.28;;;1.90;;
20727;SDS011;10525;50.154;8.198;2023-03-23T07:15:38;2.00;;;1.92;;
20727;SDS011;10525;50.154;8.198;2023-03-23T07:18:06;2.03;;;1.90;;
20727;SDS011;10525;50.154;8.198;2023-03-23T07:20:33;1.90;;;1.90;;
20727;SDS011;10525;50.154;8.198;2023-03-23T07:22:59;1.90;;;1.63;;
20727;SDS011;10525;50.154;8.198;2023-03-23T07:25:27;2.95;;;2.10;;
20727;SDS011;10525;50.154;8.198;2023-03-23T07:27:54;2.22;;;2.13;;
20727;SDS011;10525;50.154;8.198;2023-03-23T07:30:21;3.30;;;1.90;;
20727;SDS011;10525;50.154;8.198;2023-03-23T07:32:47;2.03;;;1.92;;
20727;SDS011;10525;50.154;8.198;2023-03-23T07:35:16;2.63;;;2.47;;
20727;SDS011;10525;50.154;8.198;2023-03-23T07:37:42;2.05;;;1.95;;
20727;SDS011;10525;50.154;8.198;2023-03-23T07:40:10;2.45;;;2.13;;
20727;SDS011;10525;50.154;8.198;2023-03-23T07:42:40;2.58;;;2.38;;
20727;SDS011;10525;50.154;8.198;2023-03-23T07:45:08;1.92;;;1.90;;
20727;SDS011;10525;50.154;8.198;2023-03-23T07:47:36;2.70;;;2.33;;
20727;SDS011;10525;50.154;8.198;2023-03-23T07:50:02;2.20;;;2.10;;
20727;SDS011;10525;50.154;8.198;2023-03-23T07:52:31;1.98;;;1.88;;
20727;SDS011;10525;50.154;8.198;2023-03-23T07:54:58;2.28;;;2.05;;
20727;SDS011;10525;50.154;8.198;2023-03-23T07:57:26;1.80;;;1.80;;
20727;SDS011;10525;50.154;8.198;2023-03-23T07:59:53;2.38;;;2.05;;
20727;SDS011;10525;50.154;8.198;2023-03-23T08:02:20;3.85;;;2.00;;
20727;SDS011;10525;50.154;8.198;2023-03-23T08:04:47;2.28;;;2.17;;
20727;SDS011;10525;50.154;8.198;2023-03-23T08:07:13;2.33;;;1.98;;
20727;SDS011;10525;50.154;8.198;2023-03-23T08:09:42;2.47;;;2.38;;
20727;SDS011;10525;50.154;8.198;2023-03-23T08:12:09;2.38;;;2.28;;
20727;SDS011;10525;50.154;8.198;2023-03-23T08:14:36;2.55;;;2.35;;
20727;SDS011;10525;50.154;8.198;2023-03-23T08:17:03;2.15;;;2.05;;
20727;SDS011;10525;50.154;8.198;2023-03-23T08:19:30;2.65;;;2.50;;
20727;SDS011;10525;50.154;8.198;2023-03-23T08:22:02;2.30;;;2.30;;
20727;SDS011;10525;50.154;8.198;2023-03-23T08:24:29;2.92;;;2.30;;
20727;SDS011;10525;50.154;8.198;2023-03-23T08:26:57;2.40;;;2.30;;
20727;SDS011;10525;50.154;8.198;2023-03-23T08:29:24;2.30;;;2.20;;
20727;SDS011;10525;50.154;8.198;2023-03-23T08:31:51;2.30;;;2.20;;
20727;SDS011;10525;50.154;8.198;2023-03-23T08:34:18;2.75;;;2.65;;
20727;SDS011;10525;50.154;8.198;2023-03-23T08:36:45;2.67;;;2.40;;
20727;SDS011;10525;50.154;8.198;2023-03-23T08:39:12;2.25;;;2.13;;
20727;SDS011;10525;50.154;8.198;2023-03-23T08:41:39;2.22;;;2.13;;
20727;SDS011;10525;50.154;8.198;2023-03-23T08:44:07;1.90;;;1.90;;
20727;SDS011;10525;50.154;8.198;2023-03-23T08:46:34;1.92;;;1.92;;
20727;SDS011;10525;50.154;8.198;2023-03-23T08:49:01;2.08;;;1.98;;
20727;SDS011;10525;50.154;8.198;2023-03-23T08:51:27;1.80;;;1.80;;
20727;SDS011;10525;50.154;8.198;2023-03-23T08:53:54;2.95;;;2.17;;
20727;SDS011;10525;50.154;8.198;2023-03-23T08:56:21;2.13;;;2.13;;
20727;SDS011;10525;50.154;8.198;2023-03-23T08:58:48;2.20;;;2.10;;
20727;SDS011;10525;50.154;8.198;2023-03-23T09:01:16;1.92;;;1.83;;
20727;SDS011;10525;50.154;8.198;2023-03-23T09:03:42;2.22;;;2.13;;
20727;SDS011;10525;50.154;8.198;2023-03-23T09:06:09;2.58;;;2.15;;
20727;SDS011;10525;50.154;8.198;2023-03-23T09:08:37;1.73;;;1.60;;
20727;SDS011;10525;50.154;8.198;2023-03-23T09:11:06;2.13;;;1.80;;
20727;SDS011;10525;50.154;8.198;2023-03-23T09:13:34;1.63;;;1.63;;
20727;SDS011;10525;50.154;8.198;2023-03-23T09:16:02;2.00;;;1.90;;
20727;SDS011;10525;50.154;8.198;2023-03-23T09:18:30;2.75;;;1.77;;
20727;SDS011;10525;50.154;8.198;2023-03-23T09:20:58;2.25;;;1.50;;
20727;SDS011;10525;50.154;8.198;2023-03-23T09:23:26;1.35;;;1.35;;
20727;SDS011;10525;50.154;8.198;2023-03-23T09:25:53;1.40;;;1.38;;
20727;SDS011;10525;50.154;8.198;2023-03-23T09:28:20;1.70;;;1.50;;
20727;SDS011;10525;50.154;8.198;2023-03-23T09:30:47;1.60;;;1.50;;
20727;SDS011;10525;50.154;8.198;2023-03-23T09:33:15;1.63;;;1.60;;
20727;SDS011;10525;50.154;8.198;2023-03-23T09:35:43;1.65;;;1.60;;
20727;SDS011;10525;50.154;8.198;2023-03-23T09:38:10;1.42;;;1.42;;
20727;SDS011;10525;50.154;8.198;2023-03-23T09:40:39;1.80;;;1.70;;
20727;SDS011;10525;50.154;8.198;2023-03-23T09:43:20;1.30;;;1.30;;
20727;SDS011;10525;50.154;8.198;2023-03-23T09:46:04;2.90;;;1.42;;
20727;SDS011;10525;50.154;8.198;2023-03-23T09:48:44;1.05;;;1.05;;
20727;SDS011;10525;50.154;8.198;2023-03-23T09:51:21;0.93;;;0.90;;
20727;SDS011;10525;50.154;8.198;2023-03-23T09:53:55;1.88;;;1.10;;
20727;SDS011;10525;50.154;8.198;2023-03-23T09:56:25;2.08;;;1.08;;
20727;SDS011;10525;50.154;8.198;2023-03-23T09:58:56;0.90;;;0.90;;
20727;SDS011;10525;50.154;8.198;2023-03-23T10:01:27;0.88;;;0.85;;
20727;SDS011;10525;50.154;8.198;2023-03-23T10:03:59;1.58;;;1.10;;
20727;SDS011;10525;50.154;8.198;2023-03-23T10:06:31;3.83;;;1.10;;
20727;SDS011;10525;50.154;8.198;2023-03-23T10:08:58;1.67;;;0.73;;
20727;SDS011;10525;50.154;8.198;2023-03-23T10:11:31;0.80;;;0.80;;
20727;SDS011;10525;50.154;8.198;2023-03-23T10:14:11;1.05;;;1.00;;
20727;SDS011;10525;50.154;8.198;2023-03-23T10:16:49;0.90;;;0.90;;
20727;SDS011;10525;50.154;8.198;2023-03-23T10:19:25;1.23;;;1.00;;
20727;SDS011;10525;50.154;8.198;2023-03-23T10:21:59;1.13;;;1.08;;
20727;SDS011;10525;50.154;8.198;2023-03-23T10:24:30;0.93;;;0.93;;
20727;SDS011;10525;50.154;8.198;2023-03-23T10:27:03;0.82;;;0.82;;
20727;SDS011;10525;50.154;8.198;2023-03-23T10:29:39;0.80;;;0.80;;
20727;SDS011;10525;50.154;8.198;2023-03-23T10:32:10;0.77;;;0.77;;
20727;SDS011;10525;50.154;8.198;2023-03-23T10:34:40;1.65;;;0.82;;
20727;SDS011;10525;50.154;8.198;2023-03-23T10:37:12;0.98;;;0.98;;
20727;SDS011;10525;50.154;8.198;2023-03-23T10:39:45;2.08;;;1.00;;
20727;SDS011;10525;50.154;8.198;2023-03-23T10:42:22;4.00;;;1.15;;
20727;SDS011;10525;50.154;8.198;2023-03-23T10:44:52;0.88;;;0.88;;
20727;SDS011;10525;50.154;8.198;2023-03-23T10:47:21;2.38;;;0.90;;
20727;SDS011;10525;50.154;8.198;2023-03-23T10:49:50;0.95;;;0.93;;
20727;SDS011;10525;50.154;8.198;2023-03-23T10:52:29;0.80;;;0.80;;
20727;SDS011;10525;50.154;8.198;2023-03-23T10:55:01;0.82;;;0.82;;
20727;SDS011;10525;50.154;8.198;2023-03-23T10:57:31;6.47;;;1.00;;
20727;SDS011;10525;50.154;8.198;2023-03-23T11:00:00;1.38;;;0.90;;
20727;SDS011;10525;50.154;8.198;2023-03-23T11:02:31;0.95;;;0.95;;
20727;SDS011;10525;50.154;8.198;2023-03-23T11:05:03;2.80;;;2.05;;
20727;SDS011;10525;50.154;8.198;2023-03-23T11:07:34;0.70;;;0.70;;
20727;SDS011;10525;50.154;8.198;2023-03-23T11:10:06;2.85;;;0.80;;
20727;SDS011;10525;50.154;8.198;2023-03-23T11:12:43;0.82;;;0.82;;
20727;SDS011;10525;50.154;8.198;2023-03-23T11:15:16;1.00;;;1.00;;
20727;SDS011;10525;50.154;8.198;2023-03-23T11:17:57;0.70;;;0.70;;
20727;SDS011;10525;50.154;8.198;2023-03-23T11:20:25;0.90;;;0.90;;
20727;SDS011;10525;50.154;8.198;2023-03-23T11:22:55;0.70;;;0.70;;
20727;SDS011;10525;50.154;8.198;2023-03-23T11:25:23;0.90;;;0.90;;
20727;SDS011;10525;50.154;8.198;2023-03-23T11:27:51;0.88;;;0.88;;
20727;SDS011;10525;50.154;8.198;2023-03-23T11:30:20;0.80;;;0.80;;
20727;SDS011;10525;50.154;8.198;2023-03-23T11:32:49;0.80;;;0.80;;
20727;SDS011;10525;50.154;8.198;2023-03-23T11:35:18;0.90;;;0.90;;
20727;SDS011;10525;50.154;8.198;2023-03-23T11:37:47;0.82;;;0.82;;
20727;SDS011;10525;50.154;8.198;2023-03-23T11:40:19;1.65;;;1.00;;
20727;SDS011;10525;50.154;8.198;2023-03-23T11:42:48;0.95;;;0.95;;
20727;SDS011;10525;50.154;8.198;2023-03-23T11:45:24;0.80;;;0.80;;
20727;SDS011;10525;50.154;8.198;2023-03-23T11:47:58;0.70;;;0.70;;
20727;SDS011;10525;50.154;8.198;2023-03-23T11:50:34;0.90;;;0.80;;
20727;SDS011;10525;50.154;8.198;2023-03-23T11:53:07;1.65;;;0.80;;
20727;SDS011;10525;50.154;8.198;2023-03-23T11:55:51;0.80;;;0.80;;
20727;SDS011;10525;50.154;8.198;2023-03-23T11:58:23;0.80;;;0.80;;
20727;SDS011;10525;50.154;8.198;2023-03-23T12:00:57;1.00;;;1.00;;
20727;SDS011;10525;50.154;8.198;2023-03-23T12:03:30;1.23;;;1.23;;
20727;SDS011;10525;50.154;8.198;2023-03-23T12:06:08;1.10;;;1.10;;
20727;SDS011;10525;50.154;8.198;2023-03-23T12:08:49;0.80;;;0.80;;
20727;SDS011;10525;50.154;8.198;2023-03-23T12:11:26;1.08;;;1.08;;
20727;SDS011;10525;50.154;8.198;2023-03-23T12:14:02;2.60;;;0.90;;
20727;SDS011;10525;50.154;8.198;2023-03-23T12:16:43;0.82;;;0.82;;
20727;SDS011;10525;50.154;8.198;2023-03-23T12:19:21;0.90;;;0.88;;
20727;SDS011;10525;50.154;8.198;2023-03-23T12:21:55;0.70;;;0.70;;
20727;SDS011;10525;50.154;8.198;2023-03-23T12:24:34;1.10;;;0.73;;
20727;SDS011;10525;50.154;8.198;2023-03-23T12:27:12;0.70;;;0.70;;
20727;SDS011;10525;50.154;8.198;2023-03-23T12:29:57;5.82;;;0.93;;
20727;SDS011;10525;50.154;8.198;2023-03-23T12:32:38;0.70;;;0.70;;
20727;SDS011;10525;50.154;8.198;2023-03-23T12:35:14;1.52;;;0.80;;
20727;SDS011;10525;50.154;8.198;2023-03-23T12:37:54;0.70;;;0.70;;
20727;SDS011;10525;50.154;8.198;2023-03-23T12:40:32;0.80;;;0.80;;
20727;SDS011;10525;50.154;8.198;2023-03-23T12:43:12;0.80;;;0.80;;
20727;SDS011;10525;50.154;8.198;2023-03-23T12:46:01;0.80;;;0.80;;
20727;SDS011;10525;50.154;8.198;2023-03-23T12:48:37;0.90;;;0.90;;
20727;SDS011;10525;50.154;8.198;2023-03-23T12:51:12;0.90;;;0.90;;
20727;SDS011;10525;50.154;8.198;2023-03-23T12:53:49;0.85;;;0.85;;
20727;SDS011;10525;50.154;8.198;2023-03-23T12:56:21;0.85;;;0.85;;
20727;SDS011;10525;50.154;8.198;2023-03-23T12:58:58;0.80;;;0.80;;
20727;SDS011;10525;50.154;8.198;2023-03-23T13:01:32;0.90;;;0.90;;
20727;SDS011;10525;50.154;8.198;2023-03-23T13:04:04;0.90;;;0.90;;
20727;SDS011;10525;50.154;8.198;2023-03-23T13:06:35;0.90;;;0.90;;
20727;SDS011;10525;50.154;8.198;2023-03-23T13:09:04;1.00;;;1.00;;
20727;SDS011;10525;50.154;8.198;2023-03-23T13:11:37;0.95;;;0.95;;
20727;SDS011;10525;50.154;8.198;2023-03-23T13:14:11;0.95;;;0.95;;
20727;SDS011;10525;50.154;8.198;2023-03-23T13:16:46;1.95;;;0.90;;
20727;SDS011;10525;50.154;8.198;2023-03-23T13:19:22;1.20;;;1.20;;
20727;SDS011;10525;50.154;8.198;2023-03-23T13:21:54;1.05;;;1.05;;
20727;SDS011;10525;50.154;8.198;2023-03-23T13:24:28;0.80;;;0.80;;
20727;SDS011;10525;50.154;8.198;2023-03-23T13:26:58;0.90;;;0.90;;
20727;SDS011;10525;50.154;8.198;2023-03-23T13:29:27;0.90;;;0.90;;
20727;SDS011;10525;50.154;8.198;2023-03-23T13:32:03;0.93;;;0.80;;
20727;SDS011;10525;50.154;8.198;2023-03-23T13:34:32;0.90;;;0.90;;
20727;SDS011;10525;50.154;8.198;2023-03-23T13:36:59;0.90;;;0.90;;
20727;SDS011;10525;50.154;8.198;2023-03-23T13:39:29;0.80;;;0.80;;
20727;SDS011;10525;50.154;8.198;2023-03-23T13:42:00;0.80;;;0.80;;
20727;SDS011;10525;50.154;8.198;2023-03-23T13:44:40;0.75;;;0.75;;
20727;SDS011;10525;50.154;8.198;2023-03-23T13:47:16;0.75;;;0.75;;
20727;SDS011;10525;50.154;8.198;2023-03-23T13:49:49;1.55;;;1.17;;
20727;SDS011;10525;50.154;8.198;2023-03-23T13:52:18;0.90;;;0.90;;
20727;SDS011;10525;50.154;8.198;2023-03-23T13:54:50;0.88;;;0.88;;
20727;SDS011;10525;50.154;8.198;2023-03-23T13:57:20;0.80;;;0.80;;
20727;SDS011;10525;50.154;8.198;2023-03-23T14:00:11;0.80;;;0.80;;
20727;SDS011;10525;50.154;8.198;2023-03-23T14:02:58;2.38;;;1.08;;
20727;SDS011;10525;50.154;8.198;2023-03-23T14:05:30;1.00;;;1.00;;
20727;SDS011;10525;50.154;8.198;2023-03-23T14:08:00;0.95;;;0.90;;
20727;SDS011;10525;50.154;8.198;2023-03-23T14:10:39;0.80;;;0.80;;
20727;SDS011;10525;50.154;8.198;2023-03-23T14:13:11;1.05;;;1.05;;
20727;SDS011;10525;50.154;8.198;2023-03-23T14:15:44;1.10;;;1.10;;
20727;SDS011;10525;50.154;8.198;2023-03-23T14:18:21;0.90;;;0.90;;
20727;SDS011;10525;50.154;8.198;2023-03-23T14:20:49;1.08;;;1.08;;
20727;SDS011;10525;50.154;8.198;2023-03-23T14:23:17;1.02;;;1.02;;
20727;SDS011;10525;50.154;8.198;2023-03-23T14:25:45;1.00;;;1.00;;
20727;SDS011;10525;50.154;8.198;2023-03-23T14:28:21;1.08;;;1.08;;
20727;SDS011;10525;50.154;8.198;2023-03-23T14:30:51;1.52;;;1.20;;
20727;SDS011;10525;50.154;8.198;2023-03-23T14:33:19;1.10;;;1.10;;
20727;SDS011;10525;50.154;8.198;2023-03-23T14:35:47;1.13;;;1.13;;
20727;SDS011;10525;50.154;8.198;2023-03-23T14:38:15;2.85;;;1.15;;
20727;SDS011;10525;50.154;8.198;2023-03-23T14:40:44;1.00;;;1.00;;
20727;SDS011;10525;50.154;8.198;2023-03-23T14:43:13;1.00;;;1.00;;
20727;SDS011;10525;50.154;8.198;2023-03-23T14:45:42;0.90;;;0.90;;
20727;SDS011;10525;50.154;8.198;2023-03-23T14:48:12;1.33;;;1.08;;
20727;SDS011;10525;50.154;8.198;2023-03-23T14:50:41;2.00;;;1.13;;
20727;SDS011;10525;50.154;8.198;2023-03-23T14:53:16;0.88;;;0.88;;
20727;SDS011;10525;50.154;8.198;2023-03-23T14:55:46;0.90;;;0.90;;
20727;SDS011;10525;50.154;8.198;2023-03-23T14:58:15;1.25;;;1.23;;
20727;SDS011;10525;50.154;8.198;2023-03-23T15:00:43;1.27;;;1.27;;
20727;SDS011;10525;50.154;8.198;2023-03-23T15:03:15;1.10;;;1.05;;
20727;SDS011;10525;50.154;8.198;2023-03-23T15:05:44;1.17;;;1.08;;
20727;SDS011;10525;50.154;8.198;2023-03-23T15:08:15;1.40;;;1.30;;
20727;SDS011;10525;50.154;8.198;2023-03-23T15:10:51;1.10;;;1.00;;
20727;SDS011;10525;50.154;8.198;2023-03-23T15:13:19;1.75;;;1.20;;